createdAt,value
2023-01-02T00:04:31.872Z,1006.5
2023-01-02T00:09:38.231Z,1006.4
2023-01-02T00:14:44.645Z,1006.4
2023-01-02T00:20:11.047Z,1006.4
2023-01-02T00:24:57.425Z,1006.5
2023-01-02T00:30:03.782Z,1006.4
2023-01-02T00:35:10.202Z,1006.4
2023-01-02T00:40:16.567Z,1006.4
2023-01-02T00:45:22.924Z,1006.3
2023-01-02T00:50:29.305Z,1006.3
2023-01-02T00:55:35.801Z,1006.2
2023-01-02T01:00:42.168Z,1006.3
2023-01-02T01:05:48.452Z,1006.2
2023-01-02T01:10:44.831Z,1006.2
2023-01-02T01:16:01.265Z,1006.1
2023-01-02T01:21:07.621Z,1006.2
2023-01-02T01:26:14.026Z,1006.0
2023-01-02T01:31:44.541Z,1006.0
2023-01-02T01:36:26.782Z,1006.0
2023-01-02T01:41:33.182Z,1005.9
2023-01-02T01:46:39.553Z,1005.8
2023-01-02T01:51:35.931Z,1005.9
2023-01-02T01:56:52.467Z,1005.9
2023-01-02T02:01:58.912Z,1005.8
2023-01-02T02:07:05.100Z,1005.9
2023-01-02T02:12:11.521Z,1005.8
2023-01-02T02:17:17.919Z,1005.8
2023-01-02T02:22:14.237Z,1005.7
2023-01-02T02:27:54.705Z,1005.8
2023-01-02T02:32:57.070Z,1005.8
2023-01-02T02:38:17.539Z,1005.8
2023-01-02T02:43:49.000Z,1005.8
2023-01-02T02:48:33.102Z,1005.8
2023-01-02T02:53:39.508Z,1005.8
2023-01-02T02:58:45.875Z,1005.8
2023-01-02T03:03:52.306Z,1005.8
2023-01-02T03:09:22.280Z,1005.7
2023-01-02T03:19:18.642Z,1005.7
2023-01-02T03:24:24.962Z,1005.8
2023-01-02T03:29:51.396Z,1005.6
2023-01-02T03:34:37.756Z,1005.7
2023-01-02T03:40:08.173Z,1005.7
2023-01-02T03:44:50.641Z,1005.7
2023-01-02T03:49:57.054Z,1005.8
2023-01-02T03:55:03.443Z,1005.8
2023-01-02T03:59:59.783Z,1005.8
2023-01-02T04:05:06.303Z,1005.8
2023-01-02T04:10:22.704Z,1005.7
2023-01-02T04:15:29.073Z,1005.6
2023-01-02T04:20:55.521Z,1005.6
2023-01-02T04:25:40.860Z,1005.6
2023-01-02T04:30:48.279Z,1005.7
2023-01-02T04:35:54.645Z,1005.8
2023-01-02T04:41:01.063Z,1005.7
2023-01-02T04:47:21.901Z,1005.8
2023-01-02T04:51:03.788Z,1005.8
2023-01-02T04:56:54.274Z,1005.8
2023-01-02T05:02:01.898Z,1005.8
2023-01-02T05:07:08.021Z,1005.9
2023-01-02T05:12:38.476Z,1005.9
2023-01-02T05:17:10.767Z,1006.1
2023-01-02T05:22:27.168Z,1006.0
2023-01-02T05:27:33.565Z,1005.9
2023-01-02T05:32:39.956Z,1006.0
2023-01-02T05:38:25.413Z,1005.9
2023-01-02T05:43:32.808Z,1006.0
2023-01-02T05:48:39.241Z,1006.0
2023-01-02T05:53:45.594Z,1006.0
2023-01-02T05:58:51.983Z,1006.0
2023-01-02T06:03:58.466Z,1006.1
2023-01-02T06:09:04.737Z,1006.1
2023-01-02T06:14:11.119Z,1006.2
2023-01-02T06:19:17.636Z,1006.1
2023-01-02T06:24:23.904Z,1006.0
2023-01-02T06:29:58.382Z,1006.2
2023-01-02T06:34:50.761Z,1006.3
2023-01-02T06:39:43.079Z,1006.1
2023-01-02T06:44:49.464Z,1006.2
2023-01-02T06:49:55.893Z,1006.3
2023-01-02T06:55:02.324Z,1006.2
2023-01-02T06:59:58.680Z,1006.2
2023-01-02T07:05:19.755Z,1006.3
2023-01-02T07:10:21.469Z,1006.3
2023-01-02T07:15:27.851Z,1006.4
2023-01-02T07:20:34.245Z,1006.4
2023-01-02T07:25:44.356Z,1006.4
2023-01-02T07:30:46.986Z,1006.5
2023-01-02T07:35:53.509Z,1006.6
2023-01-02T07:40:59.898Z,1006.7
2023-01-02T07:46:40.388Z,1006.8
2023-01-02T07:52:07.929Z,1006.9
2023-01-02T07:56:54.233Z,1007.1
2023-01-02T08:02:44.767Z,1007.3
2023-01-02T08:07:06.988Z,1007.2
2023-01-02T08:12:13.400Z,1007.2
2023-01-02T08:17:19.737Z,1007.4
2023-01-02T08:22:26.119Z,1007.5
2023-01-02T08:27:32.521Z,1007.7
2023-01-02T08:32:38.945Z,1007.9
2023-01-02T08:37:50.252Z,1008.2
2023-01-02T08:42:51.936Z,1008.3
2023-01-02T08:47:48.272Z,1008.6
2023-01-02T08:53:07.984Z,1008.8
2023-01-02T08:58:11.198Z,1008.9
2023-01-02T09:03:17.535Z,1009.1
2023-01-02T09:08:43.906Z,1009.5
2023-01-02T09:13:19.229Z,1009.6
2023-01-02T09:18:36.736Z,1009.6
2023-01-02T09:23:43.219Z,1009.7
2023-01-02T09:28:49.645Z,1009.9
2023-01-02T09:33:56.016Z,1010.0
2023-01-02T09:39:02.419Z,1010.2
2023-01-02T09:49:14.198Z,1010.2
2023-01-02T09:54:21.563Z,1010.3
2023-01-02T09:59:27.946Z,1010.5
2023-01-02T10:04:34.463Z,1010.5
2023-01-02T10:09:40.743Z,1010.5
2023-01-02T10:14:47.141Z,1010.6
2023-01-02T10:19:53.568Z,1010.7
2023-01-02T10:24:59.922Z,1010.7
2023-01-02T10:30:06.305Z,1010.9
2023-01-02T10:35:12.831Z,1011.0
2023-01-02T10:40:08.055Z,1011.0
2023-01-02T10:45:25.467Z,1010.9
2023-01-02T10:50:31.901Z,1011.1
2023-01-02T10:55:41.850Z,1011.0
2023-01-02T11:00:48.277Z,1011.0
2023-01-02T11:05:54.740Z,1011.0
2023-01-02T11:11:00.010Z,1010.9
2023-01-02T11:16:07.486Z,1011.1
2023-01-02T11:21:13.934Z,1011.1
2023-01-02T11:26:20.235Z,1011.3
2023-01-02T11:31:56.996Z,1011.2
2023-01-02T11:36:22.992Z,1011.3
2023-01-02T11:41:29.372Z,1011.4
2023-01-02T11:46:45.783Z,1011.3
2023-01-02T11:51:42.298Z,1011.5
2023-01-02T11:57:22.718Z,1011.6
2023-01-02T12:02:05.293Z,1011.7
2023-01-02T12:07:11.572Z,1011.8
2023-01-02T12:12:17.947Z,1012.0
2023-01-02T12:17:24.344Z,1011.9
2023-01-02T12:22:30.766Z,1011.9
2023-01-02T12:27:37.147Z,1012.0
2023-01-02T12:32:43.491Z,1012.2
2023-01-02T12:37:49.918Z,1012.2
2023-01-02T12:42:56.269Z,1012.2
2023-01-02T12:48:02.684Z,1012.1
2023-01-02T12:53:09.175Z,1012.3
2023-01-02T12:58:16.021Z,1012.4
2023-01-02T13:03:22.850Z,1012.5
2023-01-02T13:08:28.829Z,1012.5
2023-01-02T13:13:35.177Z,1012.5
2023-01-02T13:19:00.231Z,1012.5
2023-01-02T13:23:51.539Z,1012.6
2023-01-02T13:28:59.513Z,1012.6
2023-01-02T13:34:05.848Z,1012.6
2023-01-02T13:39:13.844Z,1012.5
2023-01-02T13:44:20.349Z,1012.6
2023-01-02T13:49:26.817Z,1012.6
2023-01-02T13:54:33.238Z,1012.7
2023-01-02T13:59:42.098Z,1012.8
2023-01-02T14:04:47.575Z,1012.8
2023-01-02T14:09:54.019Z,1012.9
2023-01-02T14:15:00.344Z,1012.8
2023-01-02T14:20:06.738Z,1012.8
2023-01-02T14:25:13.746Z,1012.9
2023-01-02T14:30:21.115Z,1012.8
2023-01-02T14:35:29.090Z,1013.1
2023-01-02T14:40:35.517Z,1013.2
2023-01-02T14:45:41.902Z,1013.2
2023-01-02T14:50:48.250Z,1013.2
2023-01-02T14:55:54.665Z,1013.2
2023-01-02T15:01:04.679Z,1013.4
2023-01-02T15:06:09.008Z,1013.5
2023-01-02T15:11:14.420Z,1013.6
2023-01-02T15:16:23.408Z,1013.5
2023-01-02T15:21:29.852Z,1013.7
2023-01-02T15:26:36.359Z,1013.8
2023-01-02T15:31:42.759Z,1013.9
2023-01-02T15:36:49.101Z,1014.0
2023-01-02T15:41:45.533Z,1014.0
2023-01-02T15:47:01.912Z,1014.1
2023-01-02T15:52:08.307Z,1014.1
2023-01-02T15:58:28.514Z,1014.2
2023-01-02T16:02:22.824Z,1014.2
2023-01-02T16:07:32.664Z,1014.2
2023-01-02T16:12:39.076Z,1014.3
2023-01-02T16:17:45.544Z,1014.4
2023-01-02T16:24:04.000Z,1014.5
2023-01-02T16:27:59.856Z,1014.5
2023-01-02T16:33:06.257Z,1014.6
2023-01-02T16:38:12.876Z,1014.6
2023-01-02T16:43:19.279Z,1014.6
2023-01-02T16:48:25.810Z,1014.8
2023-01-02T16:53:32.225Z,1014.8
2023-01-02T16:58:38.621Z,1015.0
2023-01-02T17:03:45.088Z,1015.0
2023-01-02T17:08:53.006Z,1015.1
2023-01-02T17:14:43.452Z,1015.3
2023-01-02T17:19:05.766Z,1015.3
2023-01-02T17:29:21.160Z,1015.4
2023-01-02T17:34:27.605Z,1015.5
2023-01-02T17:39:34.972Z,1015.5
2023-01-02T17:44:43.080Z,1015.6
2023-01-02T17:49:49.486Z,1015.7
2023-01-02T17:55:19.444Z,1015.7
2023-01-02T18:00:05.831Z,1015.7
2023-01-02T18:05:15.354Z,1015.7
2023-01-02T18:10:23.043Z,1016.0
2023-01-02T18:16:03.166Z,1016.1
2023-01-02T18:26:20.496Z,1016.2
2023-01-02T18:31:26.885Z,1016.2
2023-01-02T18:37:44.567Z,1016.3
2023-01-02T18:41:32.854Z,1016.4
2023-01-02T18:48:02.946Z,1016.5
2023-01-02T18:51:57.206Z,1016.7
2023-01-02T18:57:03.626Z,1016.6
2023-01-02T19:02:10.190Z,1016.6
2023-01-02T19:07:16.413Z,1016.8
2023-01-02T19:12:22.930Z,1017.0
2023-01-02T19:17:29.334Z,1017.0
2023-01-02T19:22:35.744Z,1017.1
2023-01-02T19:28:02.202Z,1017.3
2023-01-02T19:32:49.151Z,1017.4
2023-01-02T19:37:55.576Z,1017.6
2023-01-02T19:43:26.130Z,1017.7
2023-01-02T19:48:17.794Z,1017.7
2023-01-02T19:54:17.617Z,1017.8
2023-01-02T19:58:14.921Z,1017.9
2023-01-02T20:03:31.567Z,1017.9
2023-01-02T20:08:37.832Z,1017.8
2023-01-02T20:18:51.517Z,1018.0
2023-01-02T20:23:57.838Z,1018.2
2023-01-02T20:29:05.341Z,1018.2
2023-01-02T20:34:11.765Z,1018.3
2023-01-02T20:39:08.055Z,1018.3
2023-01-02T20:44:24.734Z,1018.4
2023-01-02T20:49:35.242Z,1018.6
2023-01-02T20:54:39.100Z,1018.7
2023-01-02T20:59:45.531Z,1018.8
2023-01-02T21:05:19.475Z,1018.8
2023-01-02T21:10:01.879Z,1019.0
2023-01-02T21:15:07.198Z,1019.0
2023-01-02T21:20:14.616Z,1019.1
2023-01-02T21:25:22.558Z,1019.2
2023-01-02T21:30:28.892Z,1019.3
2023-01-02T21:35:35.321Z,1019.4
2023-01-02T21:40:41.817Z,1019.4
2023-01-02T21:45:47.156Z,1019.4
2023-01-02T21:50:54.542Z,1019.4
2023-01-02T21:56:30.661Z,1019.5
2023-01-02T22:01:08.951Z,1019.5
2023-01-02T22:06:18.919Z,1019.7
2023-01-02T22:11:25.313Z,1019.9
2023-01-02T22:16:31.762Z,1019.7
2023-01-02T22:21:38.073Z,1019.8
2023-01-02T22:26:46.054Z,1019.9
2023-01-02T22:31:52.526Z,1019.9
2023-01-02T22:36:58.955Z,1019.9
2023-01-02T22:42:05.465Z,1020.0
2023-01-02T22:47:37.475Z,1020.1
2023-01-02T22:52:19.815Z,1020.1
2023-01-02T22:57:26.186Z,1020.2
2023-01-02T23:02:32.649Z,1020.3
2023-01-02T23:07:39.232Z,1020.5
2023-01-02T23:12:45.492Z,1020.5
2023-01-02T23:17:53.448Z,1020.5
2023-01-02T23:22:59.878Z,1020.5
2023-01-02T23:28:06.250Z,1020.6
2023-01-02T23:33:12.613Z,1020.5
2023-01-02T23:38:20.706Z,1020.6
2023-01-02T23:43:25.945Z,1020.6
2023-01-02T23:48:33.311Z,1020.7
2023-01-02T23:53:38.719Z,1020.8
2023-01-02T23:59:59.794Z,1020.9
